Time;durP1;ratioP1;P1;durP2;ratioP2;P2;SDS_P1;SDS_P2;PMS_P1;PMS_P2;Temp;Humidity;BMP_temperature;BMP_pressure;BME280_temperature;BME280_humidity;BME280_pressure;Samples;Min_cycle;Max_cycle;Signal;HPM_P1;HPM_P2
2022/04/08 00:00:24;;;;;;;6.30;1.70;;;;;;;;;;6140693;28;21595;-69
2022/04/08 00:03:46;;;;;;;5.90;3.13;;;;;;;;;;6144445;28;22356;-69
2022/04/08 00:07:07;;;;;;;4.73;1.67;;;;;;;;;;6146517;28;20234;-70
2022/04/08 00:10:29;;;;;;;4.73;1.30;;;;;;;;;;6144641;28;20799;-70
2022/04/08 00:13:52;;;;;;;4.93;1.67;;;;;;;;;;6148572;28;20736;-71
2022/04/08 00:17:12;;;;;;;7.83;2.60;;;;;;;;;;6148004;28;20226;-68
2022/04/08 00:20:33;;;;;;;3.60;1.53;;;;;;;;;;6145976;28;20242;-70
2022/04/08 00:23:54;;;;;;;6.17;2.27;;;;;;;;;;6151179;28;20266;-69
2022/04/08 00:27:17;;;;;;;5.30;2.10;;;;;;;;;;6137823;28;20719;-70
2022/04/08 00:30:38;;;;;;;10.17;2.13;;;;;;;;;;6139071;28;20326;-70
2022/04/08 00:33:59;;;;;;;4.37;1.67;;;;;;;;;;6141329;28;20239;-69
2022/04/08 00:37:19;;;;;;;3.60;1.23;;;;;;;;;;6143022;28;20266;-70
2022/04/08 00:40:40;;;;;;;5.07;1.57;;;;;;;;;;6115601;28;20234;-70
2022/04/08 00:44:03;;;;;;;4.00;1.13;;;;;;;;;;6134974;28;20258;-70
2022/04/08 00:47:24;;;;;;;5.03;1.77;;;;;;;;;;6142998;28;21035;-70
2022/04/08 00:50:45;;;;;;;3.60;1.30;;;;;;;;;;6142346;28;20239;-70
2022/04/08 00:54:06;;;;;;;3.50;1.43;;;;;;;;;;6140707;28;20282;-69
2022/04/08 00:57:28;;;;;;;6.07;1.80;;;;;;;;;;6145498;28;20238;-69
2022/04/08 01:00:51;;;;;;;5.50;2.13;;;;;;;;;;6139824;28;20223;-69
2022/04/08 01:04:11;;;;;;;5.20;1.40;;;;;;;;;;6143595;28;20231;-69
2022/04/08 01:07:32;;;;;;;4.13;1.67;;;;;;;;;;6145088;28;20262;-70
2022/04/08 01:10:54;;;;;;;9.47;4.33;;;;;;;;;;6143350;28;20234;-70
2022/04/08 01:14:17;;;;;;;7.53;2.33;;;;;;;;;;6144424;28;20640;-70
2022/04/08 01:17:39;;;;;;;6.47;2.27;;;;;;;;;;6144740;28;20235;-70
2022/04/08 01:21:04;;;;;;;9.87;2.80;;;;;;;;;;6146935;28;20238;-69
2022/04/08 01:24:24;;;;;;;3.53;1.90;;;;;;;;;;6142400;28;20256;-70
2022/04/08 01:27:47;;;;;;;5.70;2.07;;;;;;;;;;6145672;28;20231;-69
2022/04/08 01:31:07;;;;;;;6.90;2.77;;;;;;;;;;6143614;28;20219;-70
2022/04/08 01:34:28;;;;;;;9.47;2.80;;;;;;;;;;6138667;28;20227;-70
2022/04/08 01:37:49;;;;;;;5.80;2.60;;;;;;;;;;6143283;28;20667;-69
2022/04/08 01:41:10;;;;;;;6.63;2.10;;;;;;;;;;6141575;28;20239;-70
2022/04/08 01:44:32;;;;;;;13.20;3.23;;;;;;;;;;6141970;28;20633;-70
2022/04/08 01:47:53;;;;;;;8.50;1.90;;;;;;;;;;6142503;28;20314;-70
2022/04/08 01:51:13;;;;;;;7.20;2.97;;;;;;;;;;6139412;28;20231;-69
2022/04/08 01:54:34;;;;;;;6.83;2.13;;;;;;;;;;6144809;28;20230;-69
2022/04/08 01:57:55;;;;;;;5.13;1.83;;;;;;;;;;6137799;28;20227;-69
2022/04/08 02:01:17;;;;;;;5.80;1.90;;;;;;;;;;6134930;28;20234;-69
2022/04/08 02:04:38;;;;;;;5.80;2.00;;;;;;;;;;6136289;28;20367;-69
2022/04/08 02:07:59;;;;;;;6.10;2.27;;;;;;;;;;6149300;28;21170;-69
2022/04/08 02:11:20;;;;;;;10.93;2.40;;;;;;;;;;6142046;28;21032;-70
2022/04/08 02:14:41;;;;;;;6.43;2.20;;;;;;;;;;6147706;28;20235;-69
2022/04/08 02:18:04;;;;;;;6.43;2.20;;;;;;;;;;6148585;28;20238;-69
2022/04/08 02:21:25;;;;;;;6.43;2.20;;;;;;;;;;6143699;28;20231;-69
2022/04/08 02:24:46;;;;;;;5.13;2.20;;;;;;;;;;6143922;28;20235;-69
2022/04/08 02:28:07;;;;;;;6.43;2.00;;;;;;;;;;6147214;28;20228;-68
2022/04/08 02:31:28;;;;;;;8.83;2.50;;;;;;;;;;6148613;28;20234;-69
2022/04/08 02:34:51;;;;;;;7.50;2.27;;;;;;;;;;6145013;28;20230;-69
2022/04/08 02:38:12;;;;;;;6.43;2.20;;;;;;;;;;6146903;28;20981;-70
2022/04/08 02:41:33;;;;;;;5.37;2.17;;;;;;;;;;6146475;28;20235;-69
2022/04/08 02:44:54;;;;;;;6.10;1.77;;;;;;;;;;6145943;28;20242;-70
2022/04/08 02:48:15;;;;;;;9.03;1.93;;;;;;;;;;6149351;28;20226;-68
2022/04/08 02:51:37;;;;;;;8.40;1.73;;;;;;;;;;6145407;28;20633;-69
2022/04/08 02:54:58;;;;;;;6.97;2.93;;;;;;;;;;6146815;28;20223;-70
2022/04/08 02:58:19;;;;;;;4.03;1.60;;;;;;;;;;6139570;28;20250;-69
2022/04/08 03:01:39;;;;;;;9.37;3.77;;;;;;;;;;6144015;28;20239;-69
2022/04/08 03:05:06;;;;;;;3.60;1.60;;;;;;;;;;6140808;28;20263;-69
2022/04/08 03:08:29;;;;;;;7.53;2.73;;;;;;;;;;6147540;28;20250;-69
2022/04/08 03:11:50;;;;;;;7.37;2.73;;;;;;;;;;6146700;28;20234;-68
2022/04/08 03:15:11;;;;;;;5.23;2.40;;;;;;;;;;6142297;28;20223;-68
2022/04/08 03:18:32;;;;;;;5.43;2.83;;;;;;;;;;6150436;28;20312;-70
2022/04/08 03:21:53;;;;;;;8.60;2.70;;;;;;;;;;6152595;28;20259;-69
2022/04/08 03:25:15;;;;;;;5.70;1.90;;;;;;;;;;6152562;28;20257;-68
2022/04/08 03:28:36;;;;;;;7.37;3.07;;;;;;;;;;6143559;28;20230;-70
2022/04/08 03:31:57;;;;;;;7.50;2.27;;;;;;;;;;6146897;28;20234;-69
2022/04/08 03:35:17;;;;;;;7.00;1.93;;;;;;;;;;6143668;28;20256;-69
2022/04/08 03:38:38;;;;;;;6.63;2.43;;;;;;;;;;6140786;28;20230;-68
2022/04/08 03:42:00;;;;;;;10.33;2.17;;;;;;;;;;6150902;28;20502;-69
2022/04/08 03:45:21;;;;;;;9.57;3.70;;;;;;;;;;6149523;28;20521;-68
2022/04/08 03:48:43;;;;;;;7.53;2.20;;;;;;;;;;6158007;28;20231;-69
2022/04/08 03:52:05;;;;;;;8.13;2.30;;;;;;;;;;6152097;28;20231;-69
2022/04/08 03:55:25;;;;;;;9.37;2.73;;;;;;;;;;6151811;28;20246;-68
2022/04/08 03:58:47;;;;;;;10.07;2.07;;;;;;;;;;6152858;28;20226;-68
2022/04/08 04:02:08;;;;;;;9.20;3.20;;;;;;;;;;6150988;28;20502;-69
2022/04/08 04:05:29;;;;;;;7.67;3.10;;;;;;;;;;6147225;28;20242;-69
2022/04/08 04:08:50;;;;;;;5.53;1.70;;;;;;;;;;6153535;28;20234;-68
2022/04/08 04:12:11;;;;;;;6.07;1.60;;;;;;;;;;6147488;28;20262;-68
2022/04/08 04:15:33;;;;;;;7.13;2.93;;;;;;;;;;6151856;28;21136;-69
2022/04/08 04:18:54;;;;;;;10.47;2.30;;;;;;;;;;6158130;28;20561;-69
2022/04/08 04:22:15;;;;;;;11.07;3.33;;;;;;;;;;6152933;28;20234;-68
2022/04/08 04:25:35;;;;;;;7.03;1.80;;;;;;;;;;6155723;28;20632;-69
2022/04/08 04:28:56;;;;;;;9.33;1.50;;;;;;;;;;6152838;28;20226;-69
2022/04/08 04:32:19;;;;;;;9.90;2.23;;;;;;;;;;6142564;28;20787;-69
2022/04/08 04:35:40;;;;;;;11.77;2.53;;;;;;;;;;6155228;28;20310;-69
2022/04/08 04:39:01;;;;;;;9.07;2.50;;;;;;;;;;6150524;28;20238;-69
2022/04/08 04:42:22;;;;;;;9.83;2.83;;;;;;;;;;6156474;28;20226;-69
2022/04/08 04:45:43;;;;;;;6.20;3.17;;;;;;;;;;6131558;28;20264;-69
2022/04/08 04:49:06;;;;;;;7.63;2.47;;;;;;;;;;6146599;28;20254;-69
2022/04/08 04:52:27;;;;;;;6.37;2.60;;;;;;;;;;6152916;28;20238;-69
2022/04/08 04:55:47;;;;;;;7.33;2.70;;;;;;;;;;6145646;28;20231;-69
2022/04/08 04:59:08;;;;;;;3.37;2.27;;;;;;;;;;6154635;28;20636;-69
2022/04/08 05:02:29;;;;;;;5.23;2.23;;;;;;;;;;6145375;28;20264;-68
2022/04/08 05:05:53;;;;;;;8.70;3.40;;;;;;;;;;6153834;28;20235;-69
2022/04/08 05:09:14;;;;;;;5.00;2.47;;;;;;;;;;6149381;28;20378;-68
2022/04/08 05:12:35;;;;;;;7.83;2.80;;;;;;;;;;6136597;28;20238;-69
2022/04/08 05:15:56;;;;;;;9.13;2.13;;;;;;;;;;6146300;28;20271;-70
2022/04/08 05:19:17;;;;;;;3.43;2.13;;;;;;;;;;6146659;28;20227;-68
2022/04/08 05:22:41;;;;;;;14.23;3.37;;;;;;;;;;6151466;28;20710;-69
2022/04/08 05:26:02;;;;;;;7.20;1.77;;;;;;;;;;6152422;28;20238;-69
2022/04/08 05:29:24;;;;;;;11.60;3.37;;;;;;;;;;6154683;28;20230;-69
2022/04/08 05:32:46;;;;;;;9.27;2.67;;;;;;;;;;6156054;28;20258;-68
2022/04/08 05:36:07;;;;;;;5.07;2.57;;;;;;;;;;6152884;28;20224;-69
2022/04/08 05:39:30;;;;;;;8.83;2.80;;;;;;;;;;6156625;28;20243;-69
2022/04/08 05:42:51;;;;;;;4.07;2.03;;;;;;;;;;6155106;28;20234;-70
2022/04/08 05:46:12;;;;;;;6.67;3.43;;;;;;;;;;6161722;28;20234;-70
2022/04/08 05:49:33;;;;;;;5.53;2.03;;;;;;;;;;6149087;28;20286;-68
2022/04/08 05:52:54;;;;;;;13.77;3.10;;;;;;;;;;6151556;28;20257;-69
2022/04/08 05:56:16;;;;;;;12.03;2.77;;;;;;;;;;6145845;28;20226;-70
2022/04/08 05:59:39;;;;;;;7.00;2.70;;;;;;;;;;6148728;28;20678;-69
2022/04/08 06:03:00;;;;;;;7.63;2.47;;;;;;;;;;6143589;28;20235;-69
2022/04/08 06:06:21;;;;;;;9.87;2.60;;;;;;;;;;6143412;28;20242;-69
2022/04/08 06:09:42;;;;;;;8.73;3.00;;;;;;;;;;6140732;28;20769;-68
2022/04/08 06:13:05;;;;;;;10.13;3.10;;;;;;;;;;6145809;28;20242;-70
2022/04/08 06:16:25;;;;;;;8.33;3.07;;;;;;;;;;6143768;28;20236;-70
2022/04/08 06:19:48;;;;;;;10.93;3.63;;;;;;;;;;6138015;28;20235;-69
2022/04/08 06:23:09;;;;;;;8.63;3.23;;;;;;;;;;6142782;28;20231;-69
2022/04/08 06:26:29;;;;;;;9.03;1.93;;;;;;;;;;6139271;28;20243;-68
2022/04/08 06:29:52;;;;;;;9.53;3.03;;;;;;;;;;6138054;28;20330;-69
2022/04/08 06:33:12;;;;;;;10.30;3.63;;;;;;;;;;6136291;28;20238;-68
2022/04/08 06:36:33;;;;;;;11.40;3.23;;;;;;;;;;6143188;28;20235;-70
2022/04/08 06:39:54;;;;;;;4.93;2.10;;;;;;;;;;6147548;28;20227;-69
2022/04/08 06:43:15;;;;;;;10.10;4.47;;;;;;;;;;6139430;28;20234;-70
2022/04/08 06:46:38;;;;;;;8.17;2.30;;;;;;;;;;6141454;28;20247;-70
2022/04/08 06:49:59;;;;;;;8.57;3.17;;;;;;;;;;6143412;28;20248;-69
2022/04/08 06:53:20;;;;;;;5.30;2.70;;;;;;;;;;6141838;28;20604;-67
2022/04/08 06:56:40;;;;;;;4.90;1.93;;;;;;;;;;6143058;28;20711;-67
2022/04/08 07:00:03;;;;;;;7.83;3.47;;;;;;;;;;6153925;28;20568;-68
2022/04/08 07:03:25;;;;;;;7.87;2.47;;;;;;;;;;6158473;28;20238;-67
2022/04/08 07:06:46;;;;;;;6.43;2.37;;;;;;;;;;6138869;28;20243;-72
2022/04/08 07:10:08;;;;;;;4.47;1.80;;;;;;;;;;6133437;28;20589;-74
2022/04/08 07:13:29;;;;;;;13.57;2.83;;;;;;;;;;6143063;28;21510;-72
2022/04/08 07:16:50;;;;;;;5.40;1.50;;;;;;;;;;6138644;28;20560;-71
2022/04/08 07:20:14;;;;;;;2.97;1.40;;;;;;;;;;6142393;28;20227;-68
2022/04/08 07:23:36;;;;;;;6.40;1.60;;;;;;;;;;6137850;28;20235;-70
2022/04/08 07:26:57;;;;;;;4.53;1.73;;;;;;;;;;6124842;28;20631;-70
2022/04/08 07:30:20;;;;;;;5.33;1.80;;;;;;;;;;6141286;28;20648;-71
2022/04/08 07:33:41;;;;;;;3.33;2.10;;;;;;;;;;6139941;28;20242;-70
2022/04/08 07:37:03;;;;;;;4.83;1.57;;;;;;;;;;6159607;28;20762;-71
2022/04/08 07:40:25;;;;;;;5.50;1.93;;;;;;;;;;6156958;28;20629;-71
2022/04/08 07:43:46;;;;;;;2.60;1.20;;;;;;;;;;6157023;28;20234;-72
2022/04/08 07:47:09;;;;;;;5.13;1.20;;;;;;;;;;6151372;28;20277;-70
2022/04/08 07:50:30;;;;;;;1.63;1.07;;;;;;;;;;6148895;28;20793;-71
2022/04/08 07:53:52;;;;;;;1.47;1.37;;;;;;;;;;6143883;28;20243;-71
2022/04/08 07:57:14;;;;;;;5.30;1.43;;;;;;;;;;6142620;28;20593;-71
2022/04/08 08:00:35;;;;;;;3.93;1.57;;;;;;;;;;6139795;28;20238;-72
2022/04/08 08:03:56;;;;;;;2.80;1.30;;;;;;;;;;6147860;28;20222;-70
2022/04/08 08:07:17;;;;;;;2.83;1.37;;;;;;;;;;6144654;28;20238;-72
2022/04/08 08:10:40;;;;;;;3.63;1.43;;;;;;;;;;6145877;28;20234;-72
2022/04/08 08:14:00;;;;;;;2.20;1.47;;;;;;;;;;6139524;28;20223;-70
2022/04/08 08:17:21;;;;;;;4.40;2.27;;;;;;;;;;6130945;28;20227;-71
2022/04/08 08:20:42;;;;;;;5.63;1.90;;;;;;;;;;6139931;28;20227;-70
2022/04/08 08:24:03;;;;;;;4.73;1.40;;;;;;;;;;6141589;28;20250;-71
2022/04/08 08:27:26;;;;;;;3.47;1.87;;;;;;;;;;6142064;28;20227;-70
2022/04/08 08:30:47;;;;;;;5.07;2.03;;;;;;;;;;6142923;28;20222;-71
2022/04/08 08:34:07;;;;;;;4.83;1.63;;;;;;;;;;6140214;28;20250;-72
2022/04/08 08:37:28;;;;;;;4.20;2.17;;;;;;;;;;6141693;28;20238;-71
2022/04/08 08:40:49;;;;;;;5.27;2.13;;;;;;;;;;6145538;28;20223;-71
2022/04/08 08:44:11;;;;;;;3.57;1.50;;;;;;;;;;6143988;28;20604;-72
2022/04/08 08:47:32;;;;;;;3.23;1.70;;;;;;;;;;6144530;28;20234;-71
2022/04/08 08:50:55;;;;;;;4.83;2.10;;;;;;;;;;6136600;28;20253;-70
2022/04/08 08:54:16;;;;;;;10.23;1.83;;;;;;;;;;6145038;28;20290;-72
2022/04/08 08:57:37;;;;;;;4.27;3.03;;;;;;;;;;6141064;28;20235;-71
2022/04/08 09:00:59;;;;;;;7.83;2.53;;;;;;;;;;6140025;28;21333;-71
2022/04/08 09:04:19;;;;;;;7.47;3.00;;;;;;;;;;6146284;28;20226;-71
2022/04/08 09:07:41;;;;;;;4.63;1.73;;;;;;;;;;6148822;28;20234;-72
2022/04/08 09:11:03;;;;;;;4.03;1.53;;;;;;;;;;6147617;28;20616;-72
2022/04/08 09:14:27;;;;;;;5.47;1.60;;;;;;;;;;6146216;28;20499;-70
2022/04/08 09:17:49;;;;;;;7.60;2.27;;;;;;;;;;6144116;28;20219;-73
2022/04/08 09:21:09;;;;;;;5.70;2.13;;;;;;;;;;6146261;28;20241;-69
2022/04/08 09:24:31;;;;;;;2.80;1.20;;;;;;;;;;6144445;28;20230;-68
2022/04/08 09:27:52;;;;;;;7.17;2.10;;;;;;;;;;6141496;28;20357;-70
2022/04/08 09:31:17;;;;;;;5.10;1.77;;;;;;;;;;6142623;28;20259;-69
2022/04/08 09:34:41;;;;;;;5.43;2.07;;;;;;;;;;6149079;28;20238;-70
2022/04/08 09:38:03;;;;;;;4.13;2.20;;;;;;;;;;6144075;28;20616;-68
2022/04/08 09:41:37;;;;;;;3.80;1.33;;;;;;;;;;6148464;28;20292;-74
2022/04/08 09:44:58;;;;;;;3.10;1.10;;;;;;;;;;6147765;28;20266;-72
2022/04/08 09:48:19;;;;;;;5.00;2.63;;;;;;;;;;6147548;28;20242;-69
2022/04/08 09:51:42;;;;;;;8.53;1.60;;;;;;;;;;6154384;28;20231;-69
2022/04/08 09:55:04;;;;;;;3.63;1.50;;;;;;;;;;6146055;28;20226;-71
2022/04/08 09:58:27;;;;;;;3.47;1.80;;;;;;;;;;6151356;28;20230;-73
2022/04/08 10:01:48;;;;;;;5.47;1.93;;;;;;;;;;6155206;28;20234;-73
2022/04/08 10:05:10;;;;;;;3.03;1.40;;;;;;;;;;6154767;28;20263;-73
2022/04/08 10:08:33;;;;;;;2.10;1.53;;;;;;;;;;6156575;28;20234;-75
2022/04/08 10:11:59;;;;;;;3.87;1.17;;;;;;;;;;6155749;28;20230;-73
2022/04/08 10:15:27;;;;;;;3.50;1.30;;;;;;;;;;6153557;28;20226;-72
2022/04/08 10:18:49;;;;;;;2.83;1.07;;;;;;;;;;6158347;28;20226;-72
2022/04/08 10:22:16;;;;;;;11.50;1.50;;;;;;;;;;6157516;28;20230;-73
2022/04/08 10:25:40;;;;;;;2.63;1.33;;;;;;;;;;6143782;28;20238;-72
2022/04/08 10:29:11;;;;;;;5.37;1.80;;;;;;;;;;6155553;28;20239;-73
2022/04/08 10:32:38;;;;;;;4.93;1.40;;;;;;;;;;6151339;28;20229;-74
2022/04/08 10:36:01;;;;;;;5.30;1.80;;;;;;;;;;6161635;28;20253;-73
2022/04/08 10:39:24;;;;;;;3.37;1.53;;;;;;;;;;6147073;28;20258;-69
2022/04/08 10:42:56;;;;;;;2.30;1.67;;;;;;;;;;6152317;28;20231;-71
2022/04/08 10:46:28;;;;;;;1.53;1.27;;;;;;;;;;6143993;28;20230;-72
2022/04/08 10:49:50;;;;;;;1.37;1.00;;;;;;;;;;6147602;28;20234;-72
2022/04/08 10:53:13;;;;;;;4.07;1.20;;;;;;;;;;6140455;28;20230;-71
2022/04/08 10:56:35;;;;;;;1.97;1.10;;;;;;;;;;6143802;28;20255;-69
2022/04/08 10:59:58;;;;;;;1.80;1.07;;;;;;;;;;6145548;28;20526;-70
2022/04/08 11:03:19;;;;;;;3.53;1.77;;;;;;;;;;6147000;28;20306;-71
2022/04/08 11:06:40;;;;;;;3.80;1.33;;;;;;;;;;6125204;28;20294;-70
2022/04/08 11:10:01;;;;;;;3.07;1.57;;;;;;;;;;6145161;28;20247;-69
2022/04/08 11:13:22;;;;;;;2.00;1.13;;;;;;;;;;6142837;28;20215;-72
2022/04/08 11:16:45;;;;;;;2.33;1.20;;;;;;;;;;6142452;28;20223;-70
2022/04/08 11:20:10;;;;;;;3.87;1.83;;;;;;;;;;6151500;28;20609;-69
2022/04/08 11:23:32;;;;;;;8.17;1.60;;;;;;;;;;6158825;28;20238;-70
2022/04/08 11:26:55;;;;;;;4.23;1.53;;;;;;;;;;6151776;28;20624;-70
2022/04/08 11:30:15;;;;;;;3.00;1.53;;;;;;;;;;6145825;28;20227;-69
2022/04/08 11:33:39;;;;;;;5.63;1.10;;;;;;;;;;6145672;28;20501;-70
2022/04/08 11:37:00;;;;;;;4.73;1.30;;;;;;;;;;6144406;28;20235;-72
2022/04/08 11:40:20;;;;;;;3.67;1.37;;;;;;;;;;6145810;28;20701;-70
2022/04/08 11:43:41;;;;;;;4.03;1.70;;;;;;;;;;6148088;28;20238;-71
2022/04/08 11:47:11;;;;;;;1.83;1.17;;;;;;;;;;6220343;27;20840;-71
2022/04/08 11:50:32;;;;;;;2.27;1.50;;;;;;;;;;6195624;28;20229;-71
2022/04/08 11:53:54;;;;;;;4.27;0.93;;;;;;;;;;6193561;28;20217;-71
2022/04/08 11:57:14;;;;;;;3.33;1.50;;;;;;;;;;6198796;28;20229;-73
2022/04/08 12:00:35;;;;;;;2.13;1.13;;;;;;;;;;6201329;28;20228;-71
2022/04/08 12:03:59;;;;;;;2.40;1.20;;;;;;;;;;6197442;28;20323;-72
2022/04/08 12:07:24;;;;;;;2.63;1.00;;;;;;;;;;6216223;28;20233;-72
2022/04/08 12:10:44;;;;;;;4.63;2.07;;;;;;;;;;6222696;28;20311;-71
2022/04/08 12:14:06;;;;;;;4.70;1.93;;;;;;;;;;6224793;28;20775;-70
2022/04/08 12:17:37;;;;;;;3.30;1.23;;;;;;;;;;6221154;28;20697;-70
2022/04/08 12:21:00;;;;;;;3.53;1.30;;;;;;;;;;6220652;28;20232;-71
2022/04/08 12:24:21;;;;;;;4.03;1.43;;;;;;;;;;6216812;28;20237;-71
2022/04/08 12:27:42;;;;;;;2.50;1.00;;;;;;;;;;6218098;28;20607;-71
2022/04/08 12:31:10;;;;;;;4.00;1.00;;;;;;;;;;6219857;28;20229;-72
2022/04/08 12:34:31;;;;;;;2.00;0.97;;;;;;;;;;6224476;28;20224;-72
2022/04/08 12:37:53;;;;;;;3.90;1.30;;;;;;;;;;6219808;28;20606;-70
2022/04/08 12:41:14;;;;;;;2.90;1.33;;;;;;;;;;6221281;28;20236;-71
2022/04/08 12:44:34;;;;;;;1.03;0.93;;;;;;;;;;6221145;28;20267;-70
2022/04/08 12:47:55;;;;;;;1.37;1.00;;;;;;;;;;6218502;28;20253;-71
2022/04/08 12:51:15;;;;;;;0.90;0.87;;;;;;;;;;6222625;28;20256;-70
2022/04/08 12:54:37;;;;;;;0.80;0.80;;;;;;;;;;6217574;28;20232;-70
2022/04/08 12:57:57;;;;;;;1.50;0.83;;;;;;;;;;6219460;28;20233;-72
2022/04/08 13:01:18;;;;;;;1.70;0.97;;;;;;;;;;6202301;28;20229;-71
2022/04/08 13:04:38;;;;;;;1.87;1.13;;;;;;;;;;6207696;28;20253;-71
2022/04/08 13:07:59;;;;;;;1.03;0.90;;;;;;;;;;6195785;28;20614;-71
2022/04/08 13:11:21;;;;;;;1.83;1.17;;;;;;;;;;6190079;28;23373;-70
2022/04/08 13:14:42;;;;;;;3.23;1.93;;;;;;;;;;6191768;28;20263;-70
2022/04/08 13:18:03;;;;;;;3.10;1.10;;;;;;;;;;6194202;28;20646;-70
2022/04/08 13:21:24;;;;;;;4.73;1.37;;;;;;;;;;6199844;28;20240;-70
2022/04/08 13:24:44;;;;;;;2.67;1.30;;;;;;;;;;6202553;28;20233;-71
2022/04/08 13:28:08;;;;;;;3.30;1.17;;;;;;;;;;6195522;28;20217;-70
2022/04/08 13:31:29;;;;;;;3.37;1.20;;;;;;;;;;6193430;28;20232;-70
2022/04/08 13:34:49;;;;;;;10.27;1.93;;;;;;;;;;6199306;28;20275;-71
2022/04/08 13:38:10;;;;;;;2.87;1.27;;;;;;;;;;6209614;28;20225;-71
2022/04/08 13:41:30;;;;;;;3.50;1.43;;;;;;;;;;6206434;28;20790;-70
2022/04/08 13:44:52;;;;;;;3.40;1.30;;;;;;;;;;6197670;28;20516;-71
2022/04/08 13:48:13;;;;;;;3.87;1.80;;;;;;;;;;6193209;28;20884;-70
2022/04/08 13:51:33;;;;;;;3.73;1.30;;;;;;;;;;6192752;28;20253;-70
2022/04/08 13:54:54;;;;;;;1.63;1.27;;;;;;;;;;6185984;28;22210;-69
2022/04/08 13:58:15;;;;;;;2.37;1.10;;;;;;;;;;6177968;28;20241;-70
2022/04/08 14:01:37;;;;;;;4.00;1.17;;;;;;;;;;6184314;28;20663;-70
2022/04/08 14:04:57;;;;;;;3.77;1.83;;;;;;;;;;6194761;28;20253;-70
2022/04/08 14:08:17;;;;;;;2.53;1.70;;;;;;;;;;6191923;28;20273;-71
2022/04/08 14:11:38;;;;;;;2.80;1.13;;;;;;;;;;6193122;28;20253;-70
2022/04/08 14:14:59;;;;;;;4.00;1.60;;;;;;;;;;6189221;28;20221;-70
2022/04/08 14:18:20;;;;;;;3.73;1.37;;;;;;;;;;6202397;28;20237;-70
2022/04/08 14:21:41;;;;;;;1.90;0.87;;;;;;;;;;6197341;28;20225;-70
2022/04/08 14:25:01;;;;;;;2.43;1.60;;;;;;;;;;6195466;28;20249;-71
2022/04/08 14:28:24;;;;;;;5.40;2.90;;;;;;;;;;6192694;28;20237;-71
2022/04/08 14:31:44;;;;;;;6.13;2.10;;;;;;;;;;6200918;28;20238;-71
2022/04/08 14:35:06;;;;;;;3.93;2.00;;;;;;;;;;6195351;28;20504;-71
2022/04/08 14:38:27;;;;;;;2.90;1.23;;;;;;;;;;6199221;28;20238;-71
2022/04/08 14:41:47;;;;;;;5.83;3.23;;;;;;;;;;6200232;28;20221;-71
2022/04/08 14:45:09;;;;;;;4.83;3.40;;;;;;;;;;6196751;28;20233;-72
2022/04/08 14:48:29;;;;;;;8.03;4.63;;;;;;;;;;6192734;28;20533;-72
2022/04/08 14:51:52;;;;;;;6.33;2.60;;;;;;;;;;6201535;28;20233;-70
2022/04/08 14:55:13;;;;;;;6.83;1.60;;;;;;;;;;6199568;28;20329;-71
2022/04/08 14:58:33;;;;;;;4.07;1.53;;;;;;;;;;6204401;28;20323;-70
2022/04/08 15:01:53;;;;;;;2.13;1.30;;;;;;;;;;6194925;28;20600;-70
2022/04/08 15:05:14;;;;;;;2.53;1.57;;;;;;;;;;6199169;28;20236;-69
2022/04/08 15:08:36;;;;;;;4.97;2.40;;;;;;;;;;6197746;28;20229;-70
2022/04/08 15:11:57;;;;;;;6.03;2.20;;;;;;;;;;6201290;28;20232;-70
2022/04/08 15:15:17;;;;;;;6.83;3.60;;;;;;;;;;6198215;28;20603;-70
2022/04/08 15:18:37;;;;;;;5.13;1.80;;;;;;;;;;6202998;28;20252;-71
2022/04/08 15:21:58;;;;;;;4.07;1.60;;;;;;;;;;6197625;28;20265;-70
2022/04/08 15:25:20;;;;;;;4.57;1.87;;;;;;;;;;6191678;28;20233;-70
2022/04/08 15:28:40;;;;;;;2.97;1.73;;;;;;;;;;6191015;28;20233;-71
2022/04/08 15:32:01;;;;;;;5.40;1.47;;;;;;;;;;6198921;28;20236;-71
2022/04/08 15:35:21;;;;;;;3.77;1.63;;;;;;;;;;6194232;28;20514;-71
2022/04/08 15:38:42;;;;;;;4.63;1.60;;;;;;;;;;6192972;28;20229;-71
2022/04/08 15:42:05;;;;;;;3.93;0.87;;;;;;;;;;6203378;28;20233;-70
2022/04/08 15:45:25;;;;;;;3.27;1.30;;;;;;;;;;6180868;28;21901;-71
2022/04/08 15:48:47;;;;;;;1.67;1.00;;;;;;;;;;6171755;28;20282;-70
2022/04/08 15:52:07;;;;;;;6.73;1.17;;;;;;;;;;6167958;28;20238;-71
2022/04/08 15:55:28;;;;;;;3.40;1.80;;;;;;;;;;6185751;28;20237;-71
2022/04/08 15:58:50;;;;;;;6.93;1.40;;;;;;;;;;6196394;28;20260;-71
2022/04/08 16:02:11;;;;;;;5.03;2.30;;;;;;;;;;6199563;28;21822;-70
2022/04/08 16:05:31;;;;;;;3.30;1.80;;;;;;;;;;6196899;28;20229;-71
2022/04/08 16:08:52;;;;;;;6.37;1.53;;;;;;;;;;6173268;28;20229;-71
2022/04/08 16:12:13;;;;;;;2.23;1.40;;;;;;;;;;6171386;28;20238;-71
2022/04/08 16:15:34;;;;;;;3.83;2.27;;;;;;;;;;6168221;28;20646;-71
2022/04/08 16:18:55;;;;;;;3.97;1.40;;;;;;;;;;6174272;28;20296;-71
2022/04/08 16:22:16;;;;;;;3.57;1.57;;;;;;;;;;6174737;28;20508;-71
2022/04/08 16:25:37;;;;;;;3.97;1.50;;;;;;;;;;6171649;28;20241;-72
2022/04/08 16:28:57;;;;;;;3.10;1.37;;;;;;;;;;6176246;28;20230;-72
2022/04/08 16:32:19;;;;;;;4.20;1.53;;;;;;;;;;6192045;28;20248;-71
2022/04/08 16:35:39;;;;;;;7.67;3.23;;;;;;;;;;6197812;28;20339;-70
2022/04/08 16:39:00;;;;;;;4.73;2.10;;;;;;;;;;6202625;28;20945;-70
2022/04/08 16:42:21;;;;;;;3.00;1.30;;;;;;;;;;6206230;28;20293;-70
2022/04/08 16:45:42;;;;;;;2.30;1.30;;;;;;;;;;6203904;28;20695;-70
2022/04/08 16:49:04;;;;;;;6.67;3.67;;;;;;;;;;6207720;28;20721;-70
2022/04/08 16:52:24;;;;;;;4.23;2.10;;;;;;;;;;6203942;28;20233;-70
2022/04/08 16:55:45;;;;;;;6.37;2.90;;;;;;;;;;6205305;28;20233;-69
2022/04/08 16:59:07;;;;;;;5.87;1.87;;;;;;;;;;6208366;28;20225;-70
2022/04/08 17:02:28;;;;;;;4.27;2.03;;;;;;;;;;6207100;28;20233;-71
2022/04/08 17:05:50;;;;;;;6.77;3.20;;;;;;;;;;6207685;28;20703;-68
2022/04/08 17:09:10;;;;;;;9.27;3.03;;;;;;;;;;6202181;28;20429;-70
2022/04/08 17:12:31;;;;;;;5.70;2.07;;;;;;;;;;6201551;28;20233;-73
2022/04/08 17:15:52;;;;;;;10.77;6.00;;;;;;;;;;6205578;28;20229;-74
2022/04/08 17:19:12;;;;;;;17.50;9.37;;;;;;;;;;6207631;28;20241;-74
2022/04/08 17:22:34;;;;;;;5.67;2.33;;;;;;;;;;6204543;28;20589;-74
2022/04/08 17:25:56;;;;;;;3.47;2.40;;;;;;;;;;6204515;28;20229;-71
2022/04/08 17:29:17;;;;;;;8.83;2.43;;;;;;;;;;6195125;28;20233;-70
2022/04/08 17:32:37;;;;;;;8.33;3.23;;;;;;;;;;6200498;28;20614;-70
2022/04/08 17:35:58;;;;;;;7.80;2.40;;;;;;;;;;6201683;28;20257;-69
2022/04/08 17:39:20;;;;;;;4.33;1.67;;;;;;;;;;6200252;28;20233;-69
2022/04/08 17:42:42;;;;;;;6.47;2.17;;;;;;;;;;6204116;28;20598;-69
2022/04/08 17:46:03;;;;;;;5.03;1.83;;;;;;;;;;6201547;28;20257;-67
2022/04/08 17:49:24;;;;;;;8.60;2.23;;;;;;;;;;6204278;28;20724;-69
2022/04/08 17:52:44;;;;;;;4.00;2.20;;;;;;;;;;6203885;28;21721;-69
2022/04/08 17:56:09;;;;;;;5.93;2.33;;;;;;;;;;6196860;28;20233;-69
2022/04/08 17:59:30;;;;;;;6.30;2.57;;;;;;;;;;6204066;28;20690;-70
2022/04/08 18:02:51;;;;;;;8.87;2.40;;;;;;;;;;6199870;28;20233;-71
2022/04/08 18:06:11;;;;;;;7.73;2.50;;;;;;;;;;6206425;28;20586;-70
2022/04/08 18:09:33;;;;;;;7.40;2.87;;;;;;;;;;6199323;28;20236;-70
2022/04/08 18:12:55;;;;;;;10.50;2.53;;;;;;;;;;6197772;28;20225;-69
2022/04/08 18:16:16;;;;;;;6.00;2.13;;;;;;;;;;6196648;28;20611;-70
2022/04/08 18:19:36;;;;;;;8.13;2.50;;;;;;;;;;6193453;28;20323;-71
2022/04/08 18:22:56;;;;;;;6.67;2.80;;;;;;;;;;6191319;28;20300;-70
2022/04/08 18:26:18;;;;;;;7.70;2.93;;;;;;;;;;6201624;28;20229;-71
2022/04/08 18:29:40;;;;;;;3.97;2.33;;;;;;;;;;6192113;28;20237;-70
2022/04/08 18:33:09;;;;;;;5.27;2.50;;;;;;;;;;6200324;28;20244;-70
2022/04/08 18:36:32;;;;;;;9.93;3.10;;;;;;;;;;6214499;28;20243;-69
2022/04/08 18:39:57;;;;;;;7.77;2.10;;;;;;;;;;6199134;28;20311;-70
2022/04/08 18:43:18;;;;;;;5.63;2.07;;;;;;;;;;6205893;28;20228;-69
2022/04/08 18:46:40;;;;;;;9.63;3.00;;;;;;;;;;6204008;28;20233;-68
2022/04/08 18:50:01;;;;;;;13.27;8.70;;;;;;;;;;6193358;28;20673;-70
2022/04/08 18:53:24;;;;;;;7.50;3.00;;;;;;;;;;6199517;28;20233;-70
2022/04/08 18:56:45;;;;;;;8.03;2.63;;;;;;;;;;6199611;28;20233;-70
2022/04/08 19:00:06;;;;;;;8.77;3.67;;;;;;;;;;6201782;28;20290;-70
2022/04/08 19:03:28;;;;;;;6.50;2.30;;;;;;;;;;6199847;28;20228;-70
2022/04/08 19:06:49;;;;;;;8.50;2.70;;;;;;;;;;6201449;28;20348;-69
2022/04/08 19:10:09;;;;;;;6.03;2.57;;;;;;;;;;6200562;28;20236;-68
2022/04/08 19:13:30;;;;;;;11.43;3.80;;;;;;;;;;6198338;28;20237;-69
2022/04/08 19:16:56;;;;;;;12.80;3.83;;;;;;;;;;6192839;28;20304;-70
2022/04/08 19:20:18;;;;;;;8.43;3.17;;;;;;;;;;6203721;28;20233;-68
2022/04/08 19:23:41;;;;;;;8.10;4.67;;;;;;;;;;6201311;28;20744;-69
2022/04/08 19:27:01;;;;;;;10.03;3.37;;;;;;;;;;6204659;28;20670;-68
2022/04/08 19:30:25;;;;;;;8.63;2.83;;;;;;;;;;6200964;28;20221;-69
2022/04/08 19:33:46;;;;;;;9.33;3.73;;;;;;;;;;6193535;28;20224;-69
2022/04/08 19:37:10;;;;;;;7.20;3.53;;;;;;;;;;6201014;28;20224;-70
2022/04/08 19:40:31;;;;;;;10.40;3.23;;;;;;;;;;6204326;28;20228;-70
2022/04/08 19:43:52;;;;;;;8.23;3.63;;;;;;;;;;6203156;28;20221;-70
2022/04/08 19:47:13;;;;;;;8.80;3.03;;;;;;;;;;6201881;28;20233;-70
2022/04/08 19:50:34;;;;;;;7.47;2.53;;;;;;;;;;6198057;28;20315;-70
2022/04/08 19:53:56;;;;;;;6.93;2.70;;;;;;;;;;6198564;28;20232;-69
2022/04/08 19:57:16;;;;;;;8.70;4.00;;;;;;;;;;6201416;28;20225;-71
2022/04/08 20:00:37;;;;;;;6.63;3.03;;;;;;;;;;6199717;28;20264;-71
2022/04/08 20:03:57;;;;;;;17.37;3.57;;;;;;;;;;6199930;28;20225;-70
2022/04/08 20:07:18;;;;;;;4.33;2.30;;;;;;;;;;6202942;28;20225;-69